createdAt,value
2022-11-17T00:01:44.277Z,4.5
2022-11-17T00:04:44.279Z,4.4
2022-11-17T00:07:44.289Z,4.4
2022-11-17T00:10:44.291Z,4.4
2022-11-17T00:13:44.289Z,4.3
2022-11-17T00:16:44.317Z,4.4
2022-11-17T00:19:44.293Z,4.3
2022-11-17T00:22:44.290Z,4.3
2022-11-17T00:25:44.296Z,4.3
2022-11-17T00:28:44.295Z,4.3
2022-11-17T00:31:44.304Z,4.3
2022-11-17T00:34:44.382Z,4.3
2022-11-17T00:37:44.323Z,4.2
2022-11-17T00:40:44.312Z,4.2
2022-11-17T00:43:44.327Z,4.3
2022-11-17T00:46:44.324Z,4.3
2022-11-17T00:49:44.324Z,4.3
2022-11-17T00:52:44.346Z,4.2
2022-11-17T00:55:44.360Z,4.3
2022-11-17T00:58:44.330Z,4.2
2022-11-17T01:01:44.387Z,4.2
2022-11-17T01:04:44.331Z,4.3
2022-11-17T01:07:44.341Z,4.2
2022-11-17T01:10:44.363Z,4.2
2022-11-17T01:13:44.340Z,4.2
2022-11-17T01:16:44.342Z,4.2
2022-11-17T01:19:44.347Z,4.2
2022-11-17T01:22:44.354Z,4.2
2022-11-17T01:25:44.352Z,4.3
2022-11-17T01:28:44.385Z,4.2
2022-11-17T01:31:44.362Z,4.2
2022-11-17T01:34:44.363Z,4.2
2022-11-17T01:37:44.368Z,4.2
2022-11-17T01:40:44.370Z,4.2
2022-11-17T01:43:44.378Z,4.2
2022-11-17T01:46:44.410Z,4.1
2022-11-17T01:49:44.387Z,4.1
2022-11-17T01:52:44.387Z,4.1
2022-11-17T01:55:44.393Z,4.1
2022-11-17T01:58:44.392Z,4
2022-11-17T02:01:44.406Z,4
2022-11-17T02:04:44.524Z,4
2022-11-17T02:07:44.412Z,4
2022-11-17T02:10:48.666Z,4
2022-11-17T02:13:44.430Z,3.9
2022-11-17T02:16:44.433Z,4
2022-11-17T02:19:44.441Z,3.9
2022-11-17T02:22:44.564Z,3.8
2022-11-17T02:25:44.447Z,3.8
2022-11-17T02:28:44.474Z,3.8
2022-11-17T02:31:44.462Z,3.8
2022-11-17T02:34:44.465Z,3.8
2022-11-17T02:37:44.471Z,3.8
2022-11-17T02:40:44.602Z,3.7
2022-11-17T02:43:44.485Z,3.7
2022-11-17T02:46:44.498Z,3.7
2022-11-17T02:49:44.507Z,3.7
2022-11-17T02:52:44.508Z,3.7
2022-11-17T02:55:44.506Z,3.7
2022-11-17T02:58:44.547Z,3.7
2022-11-17T03:01:44.541Z,3.7
2022-11-17T03:04:44.535Z,3.6
2022-11-17T03:07:44.541Z,3.6
2022-11-17T03:10:44.548Z,3.6
2022-11-17T03:13:44.554Z,3.6
2022-11-17T03:16:44.587Z,3.6
2022-11-17T03:19:44.571Z,3.6
2022-11-17T03:22:44.581Z,3.6
2022-11-17T03:25:44.587Z,3.6
2022-11-17T03:28:44.592Z,3.6
2022-11-17T03:31:44.623Z,3.6
2022-11-17T03:34:44.731Z,3.6
2022-11-17T03:37:44.610Z,3.6
2022-11-17T03:40:44.620Z,3.6
2022-11-17T03:43:44.634Z,3.6
2022-11-17T03:46:44.641Z,3.6
2022-11-17T03:49:44.645Z,3.6
2022-11-17T03:52:44.779Z,3.6
2022-11-17T03:55:44.666Z,3.5
2022-11-17T03:58:44.675Z,3.5
2022-11-17T04:01:44.760Z,3.5
2022-11-17T04:04:44.687Z,3.6
2022-11-17T04:07:44.699Z,3.5
2022-11-17T04:10:44.829Z,3.5
2022-11-17T04:13:44.719Z,3.4
2022-11-17T04:16:44.721Z,3.5
2022-11-17T04:19:44.731Z,3.5
2022-11-17T04:22:44.740Z,3.5
2022-11-17T04:25:44.752Z,3.4
2022-11-17T04:28:44.881Z,3.4
2022-11-17T04:31:44.772Z,3.4
2022-11-17T04:34:44.784Z,3.4
2022-11-17T04:37:44.792Z,3.3
2022-11-17T04:40:44.802Z,3.3
2022-11-17T04:43:44.811Z,3.3
2022-11-17T04:46:45.031Z,3.3
2022-11-17T04:49:44.833Z,3.3
2022-11-17T04:52:44.838Z,3.3
2022-11-17T04:55:44.846Z,3.3
2022-11-17T04:58:44.859Z,3.2
2022-11-17T05:01:44.911Z,3.2
2022-11-17T05:04:44.997Z,3.2
2022-11-17T05:07:44.887Z,3.2
2022-11-17T05:10:44.929Z,3.1
2022-11-17T05:13:44.911Z,3.1
2022-11-17T05:16:44.925Z,3.1
2022-11-17T05:19:44.930Z,3
2022-11-17T05:22:45.065Z,3
2022-11-17T05:25:44.955Z,3
2022-11-17T05:28:44.958Z,3
2022-11-17T05:31:44.978Z,3
2022-11-17T05:34:44.991Z,2.9
2022-11-17T05:37:45.005Z,2.9
2022-11-17T05:40:45.136Z,3
2022-11-17T05:43:45.030Z,2.9
2022-11-17T05:46:45.040Z,2.9
2022-11-17T05:49:45.053Z,2.9
2022-11-17T05:52:45.069Z,2.8
2022-11-17T05:55:45.090Z,2.8
2022-11-17T05:58:45.120Z,2.7
2022-11-17T06:01:45.110Z,2.7
2022-11-17T06:04:45.128Z,2.7
2022-11-17T06:07:45.141Z,2.7
2022-11-17T06:10:45.151Z,2.7
2022-11-17T06:13:45.172Z,2.7
2022-11-17T06:16:45.211Z,2.6
2022-11-17T06:19:45.203Z,2.6
2022-11-17T06:22:48.269Z,2.6
2022-11-17T06:25:45.216Z,2.6
2022-11-17T06:28:45.238Z,2.6
2022-11-17T06:31:45.253Z,2.6
2022-11-17T06:34:47.998Z,2.6
2022-11-17T06:37:45.281Z,2.6
2022-11-17T06:40:45.295Z,2.6
2022-11-17T06:43:45.305Z,2.5
2022-11-17T06:46:48.916Z,2.6
2022-11-17T06:49:45.341Z,2.5
2022-11-17T06:52:45.381Z,2.5
2022-11-17T06:55:45.370Z,2.6
2022-11-17T06:58:45.384Z,2.5
2022-11-17T07:01:45.403Z,2.5
2022-11-17T07:04:45.417Z,2.5
2022-11-17T07:07:45.435Z,2.6
2022-11-17T07:10:49.225Z,2.6
2022-11-17T07:13:45.466Z,2.6
2022-11-17T07:16:45.480Z,2.5
2022-11-17T07:19:45.495Z,2.5
2022-11-17T07:22:45.506Z,2.6
2022-11-17T07:25:45.527Z,2.6
2022-11-17T07:28:45.665Z,2.6
2022-11-17T07:31:45.551Z,2.6
2022-11-17T07:34:45.565Z,2.6
2022-11-17T07:37:45.579Z,2.6
2022-11-17T07:40:45.604Z,2.6
2022-11-17T07:43:45.622Z,2.6
2022-11-17T07:46:45.777Z,2.6
2022-11-17T07:49:45.659Z,2.6
2022-11-17T07:52:45.675Z,2.6
2022-11-17T07:55:45.696Z,2.7
2022-11-17T07:58:45.712Z,2.6
2022-11-17T08:01:45.726Z,2.7
2022-11-17T08:04:45.876Z,2.7
2022-11-17T08:07:45.758Z,2.7
2022-11-17T08:10:45.773Z,2.7
2022-11-17T08:13:45.796Z,2.8
2022-11-17T08:16:45.824Z,2.7
2022-11-17T08:19:45.824Z,2.7
2022-11-17T08:22:45.960Z,2.8
2022-11-17T08:25:45.859Z,2.8
2022-11-17T08:28:45.873Z,2.8
2022-11-17T08:31:45.887Z,2.9
2022-11-17T08:34:45.905Z,2.8
2022-11-17T08:37:45.923Z,2.8
2022-11-17T08:40:46.090Z,2.9
2022-11-17T08:43:45.959Z,2.9
2022-11-17T08:46:45.971Z,2.9
2022-11-17T08:49:45.989Z,2.9
2022-11-17T08:52:46.013Z,2.9
2022-11-17T08:55:46.099Z,2.9
2022-11-17T08:58:46.124Z,3
2022-11-17T09:01:46.096Z,2.9
2022-11-17T09:04:46.140Z,3
2022-11-17T09:07:46.211Z,3
2022-11-17T09:10:46.111Z,3.1
2022-11-17T09:13:46.127Z,3.1
2022-11-17T09:16:46.259Z,3.1
2022-11-17T09:19:46.172Z,3.1
2022-11-17T09:22:46.173Z,3.1
2022-11-17T09:25:46.191Z,3.2
2022-11-17T09:28:46.206Z,3.2
2022-11-17T09:31:46.292Z,3.2
2022-11-17T09:34:46.448Z,3.2
2022-11-17T09:37:46.249Z,3.2
2022-11-17T09:40:46.265Z,3.2
2022-11-17T09:43:46.282Z,3.2
2022-11-17T09:46:46.297Z,3.2
2022-11-17T09:49:46.320Z,3.2
2022-11-17T09:52:46.347Z,3.2
2022-11-17T09:55:46.335Z,3.3
2022-11-17T09:58:46.352Z,3.3
2022-11-17T10:01:46.404Z,3.3
2022-11-17T10:04:46.385Z,3.3
2022-11-17T10:07:46.398Z,3.3
2022-11-17T10:10:46.530Z,3.4
2022-11-17T10:13:46.428Z,3.4
2022-11-17T10:16:46.440Z,3.4
2022-11-17T10:19:46.456Z,3.4
2022-11-17T10:22:46.492Z,3.4
2022-11-17T10:25:46.505Z,3.4
2022-11-17T10:28:46.626Z,3.4
2022-11-17T10:31:46.518Z,3.5
2022-11-17T10:34:46.544Z,3.5
2022-11-17T10:37:46.565Z,3.5
2022-11-17T10:40:46.567Z,3.6
2022-11-17T10:43:46.585Z,3.5
2022-11-17T10:46:46.792Z,3.6
2022-11-17T10:49:46.604Z,3.6
2022-11-17T10:52:46.603Z,3.6
2022-11-17T10:55:46.616Z,3.6
2022-11-17T10:58:46.632Z,3.6
2022-11-17T11:01:46.785Z,3.6
2022-11-17T11:04:46.678Z,3.6
2022-11-17T11:07:46.659Z,3.7
2022-11-17T11:10:46.675Z,3.7
2022-11-17T11:13:46.682Z,3.7
2022-11-17T11:16:48.318Z,3.7
2022-11-17T11:19:46.706Z,3.7
2022-11-17T11:22:46.756Z,3.7
2022-11-17T11:25:46.725Z,3.6
2022-11-17T11:28:50.101Z,3.7
2022-11-17T11:31:46.741Z,3.7
2022-11-17T11:34:46.752Z,3.7
2022-11-17T11:37:46.763Z,3.7
2022-11-17T11:40:46.800Z,3.7
2022-11-17T11:43:46.776Z,3.7
2022-11-17T11:46:46.784Z,3.7
2022-11-17T11:49:46.796Z,3.7
2022-11-17T11:52:46.819Z,3.7
2022-11-17T11:55:46.814Z,3.7
2022-11-17T11:58:46.841Z,3.7
2022-11-17T12:01:46.824Z,3.7
2022-11-17T12:04:46.832Z,3.8
2022-11-17T12:07:46.845Z,3.8
2022-11-17T12:10:46.857Z,3.8
2022-11-17T12:13:51.293Z,3.9
2022-11-17T12:16:46.901Z,3.9
2022-11-17T12:19:47.012Z,3.9
2022-11-17T12:22:46.891Z,4
2022-11-17T12:25:52.214Z,4
2022-11-17T12:28:46.910Z,3.9
2022-11-17T12:31:46.917Z,3.9
2022-11-17T12:34:46.943Z,4
2022-11-17T12:37:46.945Z,3.9
2022-11-17T12:40:46.938Z,3.9
2022-11-17T12:43:46.943Z,3.9
2022-11-17T12:46:46.946Z,3.9
2022-11-17T12:49:46.955Z,3.9
2022-11-17T12:52:47.003Z,3.9
2022-11-17T12:55:46.967Z,3.9
2022-11-17T12:58:46.973Z,3.9
2022-11-17T13:01:47.046Z,3.9
2022-11-17T13:04:49.539Z,4
2022-11-17T13:07:46.991Z,4
2022-11-17T13:10:47.026Z,4
2022-11-17T13:13:47.413Z,4
2022-11-17T13:16:47.022Z,4
2022-11-17T13:19:47.029Z,4
2022-11-17T13:22:47.063Z,4.1
2022-11-17T13:25:47.036Z,4.1
2022-11-17T13:28:47.072Z,4.1
2022-11-17T13:31:47.075Z,4.1
2022-11-17T13:34:47.061Z,4.1
2022-11-17T13:37:47.065Z,4
2022-11-17T13:40:47.072Z,4
2022-11-17T13:43:47.074Z,4
2022-11-17T13:46:47.263Z,4
2022-11-17T13:49:47.094Z,4
2022-11-17T13:52:47.436Z,4
2022-11-17T13:55:47.105Z,4
2022-11-17T13:58:47.104Z,4
2022-11-17T14:01:47.199Z,4
2022-11-17T14:04:47.142Z,4
2022-11-17T14:07:47.126Z,4
2022-11-17T14:10:47.127Z,4
2022-11-17T14:13:47.136Z,4
2022-11-17T14:16:47.134Z,4
2022-11-17T14:19:47.139Z,4
2022-11-17T14:22:47.172Z,4
2022-11-17T14:25:47.149Z,4
2022-11-17T14:28:47.152Z,4
2022-11-17T14:31:47.159Z,4
2022-11-17T14:34:47.172Z,4
2022-11-17T14:37:47.164Z,4
2022-11-17T14:40:47.293Z,4
2022-11-17T14:43:47.187Z,4
2022-11-17T14:46:47.186Z,4
2022-11-17T14:49:47.184Z,4
2022-11-17T14:52:47.190Z,4
2022-11-17T14:55:47.203Z,4
2022-11-17T14:58:47.231Z,4
2022-11-17T15:01:47.206Z,4
2022-11-17T15:04:51.379Z,4
2022-11-17T15:07:47.210Z,4
2022-11-17T15:10:47.229Z,4
2022-11-17T15:13:47.231Z,4
2022-11-17T15:16:47.261Z,4
2022-11-17T15:19:47.229Z,4
2022-11-17T15:22:47.232Z,4
2022-11-17T15:25:47.237Z,4
2022-11-17T15:28:47.247Z,4
2022-11-17T15:31:47.246Z,4
2022-11-17T15:34:47.276Z,4
2022-11-17T15:37:47.271Z,4
2022-11-17T15:40:47.274Z,4
2022-11-17T15:43:47.396Z,4
2022-11-17T15:46:47.940Z,4
2022-11-17T15:49:47.280Z,4
2022-11-17T15:55:47.287Z,4
2022-11-17T15:58:47.297Z,4
2022-11-17T16:01:47.300Z,4
2022-11-17T16:04:47.303Z,4
2022-11-17T16:07:47.323Z,4
2022-11-17T16:10:47.333Z,4
2022-11-17T16:13:47.304Z,4.1
2022-11-17T16:16:47.323Z,4
2022-11-17T16:19:47.336Z,4.1
2022-11-17T16:22:47.320Z,4
2022-11-17T16:25:47.320Z,4.1
2022-11-17T16:28:47.347Z,4
2022-11-17T16:31:47.321Z,4
2022-11-17T16:34:47.332Z,4
2022-11-17T16:37:47.326Z,4
2022-11-17T16:40:47.324Z,4
2022-11-17T16:43:47.325Z,4
2022-11-17T16:46:47.372Z,4
2022-11-17T16:49:51.555Z,4
2022-11-17T16:52:47.378Z,4
2022-11-17T16:55:47.367Z,4
2022-11-17T16:58:47.373Z,4
2022-11-17T17:01:47.398Z,4
2022-11-17T17:04:47.453Z,4
2022-11-17T17:07:47.434Z,4
2022-11-17T17:10:47.444Z,4
2022-11-17T17:13:47.474Z,4
2022-11-17T17:16:47.482Z,4
2022-11-17T17:19:47.499Z,4
2022-11-17T17:22:47.664Z,4
2022-11-17T17:25:47.544Z,4
2022-11-17T17:28:47.575Z,4
2022-11-17T17:31:47.599Z,4
2022-11-17T17:34:47.612Z,3.9
2022-11-17T17:37:47.631Z,4
2022-11-17T17:40:47.673Z,3.9
2022-11-17T17:43:47.670Z,4
2022-11-17T17:46:47.684Z,3.9
2022-11-17T17:49:47.706Z,4
2022-11-17T17:52:47.729Z,3.9
2022-11-17T17:55:47.753Z,4
2022-11-17T17:58:47.800Z,3.9
2022-11-17T18:01:47.910Z,3.9
2022-11-17T18:04:47.801Z,3.9
2022-11-17T18:07:47.823Z,3.9
2022-11-17T18:10:47.854Z,3.9
2022-11-17T18:13:47.875Z,3.9
2022-11-17T18:16:47.924Z,3.9
2022-11-17T18:19:47.918Z,3.9
2022-11-17T18:22:47.946Z,3.9
2022-11-17T18:25:47.969Z,3.9
2022-11-17T18:28:47.983Z,3.9
2022-11-17T18:31:48.006Z,3.9
2022-11-17T18:34:48.062Z,3.9
2022-11-17T18:37:48.047Z,3.9
2022-11-17T18:40:48.102Z,3.9
2022-11-17T18:43:48.087Z,3.9
2022-11-17T18:46:48.106Z,3.9
2022-11-17T18:49:48.126Z,3.9
2022-11-17T18:52:48.181Z,3.9
2022-11-17T18:55:48.169Z,3.9
2022-11-17T18:58:48.185Z,3.9
2022-11-17T19:01:48.295Z,3.8
2022-11-17T19:04:48.239Z,3.9
2022-11-17T19:07:48.258Z,3.8
2022-11-17T19:10:48.316Z,3.8
2022-11-17T19:13:48.310Z,3.8
2022-11-17T19:16:48.337Z,3.8
2022-11-17T19:19:48.356Z,3.8
2022-11-17T19:22:48.385Z,3.8
2022-11-17T19:25:48.399Z,3.8
2022-11-17T19:28:48.456Z,3.8
2022-11-17T19:31:48.447Z,3.8
2022-11-17T19:34:48.447Z,3.8
2022-11-17T19:37:48.480Z,3.8
2022-11-17T19:40:48.497Z,3.8
2022-11-17T19:43:48.517Z,3.8
2022-11-17T19:46:48.559Z,3.8
2022-11-17T19:49:48.556Z,3.8
2022-11-17T19:52:48.577Z,3.8
2022-11-17T19:55:48.608Z,3.8
2022-11-17T19:58:48.635Z,3.8
2022-11-17T20:01:48.678Z,3.8
2022-11-17T20:04:48.765Z,3.8
2022-11-17T20:07:48.709Z,3.8
2022-11-17T20:10:48.736Z,3.8
2022-11-17T20:13:48.758Z,3.8
2022-11-17T20:16:48.783Z,3.8
2022-11-17T20:19:48.801Z,3.8
2022-11-17T20:22:48.849Z,3.7
2022-11-17T20:25:48.839Z,3.7
2022-11-17T20:28:48.856Z,3.7
2022-11-17T20:31:48.879Z,3.7
2022-11-17T20:34:48.901Z,3.7
2022-11-17T20:37:48.921Z,3.7
2022-11-17T20:40:48.967Z,3.7
2022-11-17T20:43:48.966Z,3.7
2022-11-17T20:46:48.984Z,3.7
2022-11-17T20:49:49.011Z,3.7
2022-11-17T20:52:49.038Z,3.7
2022-11-17T20:55:49.062Z,3.7
2022-11-17T20:58:49.108Z,3.7
2022-11-17T21:01:49.108Z,3.7
2022-11-17T21:04:49.137Z,3.7
2022-11-17T21:07:49.169Z,3.6
2022-11-17T21:10:49.192Z,3.7
2022-11-17T21:13:49.216Z,3.6
2022-11-17T21:16:49.259Z,3.6
2022-11-17T21:19:49.257Z,3.6
2022-11-17T21:22:49.274Z,3.6
2022-11-17T21:25:49.302Z,3.6
2022-11-17T21:28:49.322Z,3.6
2022-11-17T21:31:49.346Z,3.6
2022-11-17T21:34:49.929Z,3.6
2022-11-17T21:37:49.382Z,3.6
2022-11-17T21:40:49.405Z,3.5
2022-11-17T21:43:49.434Z,3.5
2022-11-17T21:46:49.459Z,3.5
2022-11-17T21:49:49.487Z,3.5
2022-11-17T21:52:49.540Z,3.5
2022-11-17T21:55:49.533Z,3.4
2022-11-17T21:58:49.562Z,3.4
2022-11-17T22:01:49.591Z,3.4
2022-11-17T22:04:49.615Z,3.4
2022-11-17T22:07:49.751Z,3.4
2022-11-17T22:10:49.693Z,3.4
2022-11-17T22:13:49.685Z,3.4
2022-11-17T22:16:49.709Z,3.4
2022-11-17T22:19:49.733Z,3.4
2022-11-17T22:22:49.758Z,3.4
2022-11-17T22:25:49.772Z,3.3
2022-11-17T22:28:49.815Z,3.3
2022-11-17T22:31:49.946Z,3.3
2022-11-17T22:34:49.834Z,3.3
2022-11-17T22:37:49.868Z,3.3
2022-11-17T22:40:49.901Z,3.3
2022-11-17T22:43:49.936Z,3.3
2022-11-17T22:46:49.996Z,3.3
2022-11-17T22:49:49.998Z,3.3
2022-11-17T22:52:50.012Z,3.3
2022-11-17T22:55:50.045Z,3.2
2022-11-17T22:58:50.172Z,3.2
2022-11-17T23:01:50.101Z,3.2
2022-11-17T23:04:50.140Z,3.2
2022-11-17T23:07:50.135Z,3.2
2022-11-17T23:10:51.766Z,3.2
2022-11-17T23:13:50.179Z,3.2
2022-11-17T23:16:50.211Z,3.2
2022-11-17T23:19:50.237Z,3.2
2022-11-17T23:22:50.277Z,3.2
2022-11-17T23:25:50.269Z,3.1
2022-11-17T23:28:50.297Z,3.1
2022-11-17T23:31:50.324Z,3.1
2022-11-17T23:34:50.350Z,3.1
2022-11-17T23:37:50.382Z,3.1
2022-11-17T23:40:50.437Z,3.1
2022-11-17T23:43:50.446Z,3.1
2022-11-17T23:46:50.477Z,3.1
2022-11-17T23:49:50.507Z,3.1
2022-11-17T23:52:50.530Z,3.1
2022-11-17T23:55:50.553Z,3.1
2022-11-17T23:58:50.602Z,3.1
